Time;durP1;ratioP1;P1;durP2;ratioP2;P2;SDS_P1;SDS_P2;PMS_P1;PMS_P2;Temp;Humidity;BMP_temperature;BMP_pressure;BME280_temperature;BME280_humidity;BME280_pressure;Samples;Min_cycle;Max_cycle;Signal;HPM_P1;HPM_P2
2022/04/27 00:00:58;;;;;;;7.38;4.95;;;15.00;82.80;;;;;;5013912;28;20560;-75
2022/04/27 00:03:24;;;;;;;8.75;5.30;;;15.00;82.50;;;;;;5014132;28;20037;-75
2022/04/27 00:05:49;;;;;;;9.95;5.05;;;14.90;82.60;;;;;;5014358;28;20058;-76
2022/04/27 00:08:15;;;;;;;7.78;5.00;;;15.00;82.50;;;;;;5013785;28;20022;-76
2022/04/27 00:10:40;;;;;;;7.72;4.78;;;15.00;82.30;;;;;;5013485;28;20504;-75
2022/04/27 00:13:06;;;;;;;7.68;4.93;;;15.00;82.80;;;;;;5014943;28;20076;-75
2022/04/27 00:15:31;;;;;;;7.45;4.70;;;15.00;82.90;;;;;;5015174;28;20034;-76
2022/04/27 00:17:57;;;;;;;9.23;4.95;;;15.00;82.20;;;;;;5015011;28;20393;-75
2022/04/27 00:20:22;;;;;;;8.50;4.90;;;15.00;82.30;;;;;;5013525;28;20034;-76
2022/04/27 00:22:48;;;;;;;7.57;4.68;;;15.00;82.60;;;;;;5013831;28;20026;-75
2022/04/27 00:25:14;;;;;;;7.05;4.85;;;14.90;82.60;;;;;;5013617;28;20018;-75
2022/04/27 00:27:39;;;;;;;7.50;4.53;;;14.90;82.70;;;;;;5013363;28;20018;-76
2022/04/27 00:30:05;;;;;;;7.38;4.70;;;14.90;82.40;;;;;;5013388;28;20030;-75
2022/04/27 00:32:31;;;;;;;7.55;4.63;;;15.00;82.90;;;;;;5014797;28;20061;-75
2022/04/27 00:34:56;;;;;;;7.13;4.50;;;15.00;83.00;;;;;;5013384;28;20176;-75
2022/04/27 00:37:22;;;;;;;8.27;5.45;;;15.00;82.90;;;;;;5013433;28;20119;-78
2022/04/27 00:39:47;;;;;;;7.40;4.80;;;15.00;82.90;;;;;;5014175;28;20030;-76
2022/04/27 00:42:24;;;;;;;8.32;5.20;;;15.00;82.80;;;;;;5014522;28;20034;-76
2022/04/27 00:44:50;;;;;;;6.78;4.60;;;15.10;82.70;;;;;;4995080;28;20026;-75
2022/04/27 00:47:17;;;;;;;7.55;4.63;;;15.10;82.50;;;;;;4993774;28;20621;-75
2022/04/27 00:49:51;;;;;;;8.07;4.60;;;15.10;82.30;;;;;;5013182;28;20065;-75
2022/04/27 00:52:18;;;;;;;7.00;4.60;;;15.10;82.50;;;;;;5014277;28;20021;-75
2022/04/27 00:54:48;;;;;;;7.18;4.55;;;15.10;82.50;;;;;;5014439;28;20474;-75
2022/04/27 00:57:14;;;;;;;7.32;4.53;;;15.00;82.50;;;;;;5014688;28;20420;-75
2022/04/27 00:59:40;;;;;;;6.32;4.40;;;15.00;82.50;;;;;;5014150;28;20076;-75
2022/04/27 01:02:07;;;;;;;7.32;4.53;;;15.00;82.60;;;;;;5012981;28;20026;-75
2022/04/27 01:04:33;;;;;;;8.55;4.75;;;15.00;82.80;;;;;;5012845;28;20030;-75
2022/04/27 01:07:00;;;;;;;7.72;5.10;;;15.00;83.00;;;;;;5012914;28;20022;-75
2022/04/27 01:09:26;;;;;;;7.93;4.70;;;14.90;83.00;;;;;;5012796;28;20033;-75
2022/04/27 01:11:52;;;;;;;7.22;4.63;;;14.90;82.90;;;;;;5013825;28;20497;-76
2022/04/27 01:14:18;;;;;;;8.55;4.70;;;14.90;83.00;;;;;;5013007;28;20026;-75
2022/04/27 01:16:51;;;;;;;7.78;4.88;;;14.90;83.10;;;;;;5013853;28;20100;-76
2022/04/27 01:19:17;;;;;;;6.50;4.40;;;14.90;83.10;;;;;;5012744;28;20493;-75
2022/04/27 01:21:43;;;;;;;7.85;4.43;;;14.90;83.10;;;;;;5012363;28;20405;-75
2022/04/27 01:24:10;;;;;;;6.75;4.28;;;14.90;83.00;;;;;;5013576;28;20032;-75
2022/04/27 01:26:37;;;;;;;6.78;4.45;;;14.90;83.00;;;;;;5013837;28;20022;-76
2022/04/27 01:29:02;;;;;;;6.63;4.18;;;14.90;83.00;;;;;;5013350;28;20029;-75
2022/04/27 01:31:28;;;;;;;7.68;4.38;;;14.90;82.90;;;;;;5013669;28;20026;-75
2022/04/27 01:33:55;;;;;;;7.20;4.55;;;14.90;83.00;;;;;;5014559;28;20147;-75
2022/04/27 01:36:20;;;;;;;6.43;4.38;;;14.90;83.00;;;;;;5013609;28;20140;-76
2022/04/27 01:38:46;;;;;;;7.85;4.28;;;14.90;82.90;;;;;;5013153;28;20541;-76
2022/04/27 01:41:11;;;;;;;8.25;4.22;;;14.90;82.90;;;;;;5013502;28;20485;-75
2022/04/27 01:43:37;;;;;;;6.93;4.07;;;14.90;82.60;;;;;;5012070;28;20485;-76
2022/04/27 01:46:05;;;;;;;6.97;4.45;;;14.80;82.50;;;;;;5012102;28;20049;-76
2022/04/27 01:48:31;;;;;;;6.70;4.40;;;14.90;82.90;;;;;;5011578;28;20474;-76
2022/04/27 01:50:57;;;;;;;7.20;4.60;;;14.90;82.90;;;;;;5011936;28;20489;-76
2022/04/27 01:56:08;;;;;;;6.45;3.95;;;14.80;82.50;;;;;;5013451;28;20117;-76
2022/04/27 01:58:33;;;;;;;6.05;4.03;;;14.90;82.50;;;;;;5012979;28;20464;-76
2022/04/27 02:00:59;;;;;;;6.88;4.30;;;15.00;82.50;;;;;;5012895;28;20034;-75
2022/04/27 02:03:24;;;;;;;7.97;4.45;;;15.00;82.30;;;;;;5011939;28;20030;-75
2022/04/27 02:05:52;;;;;;;7.05;4.43;;;15.00;82.20;;;;;;5006511;28;20029;-76
2022/04/27 02:08:18;;;;;;;7.22;4.40;;;15.00;82.10;;;;;;5012894;28;20439;-75
2022/04/27 02:10:44;;;;;;;6.93;4.10;;;15.00;82.00;;;;;;5011632;28;20026;-76
2022/04/27 02:13:10;;;;;;;7.35;4.03;;;15.00;82.10;;;;;;5011849;28;20026;-75
2022/04/27 02:15:36;;;;;;;6.88;3.83;;;15.00;82.10;;;;;;5012563;28;20111;-74
2022/04/27 02:18:03;;;;;;;6.60;4.10;;;15.00;82.40;;;;;;5011800;28;20077;-76
2022/04/27 02:20:29;;;;;;;6.90;4.32;;;14.90;82.50;;;;;;5011357;28;20604;-76
2022/04/27 02:22:55;;;;;;;5.95;4.20;;;14.90;82.60;;;;;;5011272;28;20026;-75
2022/04/27 02:25:22;;;;;;;6.85;3.95;;;14.90;82.70;;;;;;5011776;28;20029;-75
2022/04/27 02:27:49;;;;;;;7.13;3.97;;;14.90;82.80;;;;;;5011596;28;20121;-76
2022/04/27 02:30:15;;;;;;;6.90;3.95;;;14.90;82.80;;;;;;5011253;28;20041;-76
2022/04/27 02:32:41;;;;;;;6.70;4.00;;;14.80;82.80;;;;;;5013088;28;20120;-75
2022/04/27 02:35:08;;;;;;;6.15;3.85;;;14.80;83.30;;;;;;5012523;28;20110;-75
2022/04/27 02:37:34;;;;;;;6.38;4.07;;;14.80;82.80;;;;;;5011378;28;20030;-74
2022/04/27 02:39:59;;;;;;;7.18;3.92;;;14.80;82.70;;;;;;5012733;28;20030;-75
2022/04/27 02:42:26;;;;;;;6.57;4.30;;;14.80;82.70;;;;;;5011467;28;20120;-76
2022/04/27 02:44:51;;;;;;;6.82;4.15;;;14.80;82.70;;;;;;5012496;28;20018;-75
2022/04/27 02:47:18;;;;;;;6.15;4.10;;;14.80;82.70;;;;;;5011404;28;20479;-75
2022/04/27 02:52:28;;;;;;;7.20;4.03;;;14.80;82.60;;;;;;5012902;28;20092;-76
2022/04/27 02:54:53;;;;;;;6.15;4.00;;;14.70;82.40;;;;;;5010995;28;20030;-75
2022/04/27 02:57:19;;;;;;;5.80;3.50;;;14.80;82.50;;;;;;5012542;28;20410;-75
2022/04/27 02:59:45;;;;;;;7.50;4.05;;;14.80;82.30;;;;;;5010746;28;20041;-74
2022/04/27 03:02:10;;;;;;;5.65;3.60;;;14.80;82.50;;;;;;5012468;28;20105;-75
2022/04/27 03:04:36;;;;;;;7.40;3.83;;;14.80;82.20;;;;;;5012296;28;20117;-76
2022/04/27 03:07:02;;;;;;;5.90;4.00;;;14.80;82.40;;;;;;5012711;28;20030;-75
2022/04/27 03:09:29;;;;;;;6.30;4.13;;;14.80;82.50;;;;;;5011269;28;20465;-75
2022/04/27 03:11:55;;;;;;;6.78;4.22;;;14.70;82.40;;;;;;5011022;28;20664;-75
2022/04/27 03:14:20;;;;;;;5.85;3.72;;;14.80;82.30;;;;;;5011019;28;20030;-76
2022/04/27 03:16:46;;;;;;;6.68;4.10;;;14.90;82.30;;;;;;5011129;28;20026;-77
2022/04/27 03:19:12;;;;;;;6.45;3.78;;;14.90;82.20;;;;;;5011002;28;20366;-75
2022/04/27 03:21:38;;;;;;;6.60;3.75;;;14.90;82.00;;;;;;5010693;28;20025;-75
2022/04/27 03:24:03;;;;;;;7.53;3.97;;;14.90;81.80;;;;;;5010613;28;20021;-75
2022/04/27 03:26:29;;;;;;;5.82;3.88;;;14.90;81.70;;;;;;5010744;28;20025;-75
2022/04/27 03:28:55;;;;;;;5.97;3.65;;;14.90;81.80;;;;;;5012636;28;20052;-75
2022/04/27 03:31:20;;;;;;;6.85;4.28;;;14.90;81.80;;;;;;5013978;28;20501;-75
2022/04/27 03:33:46;;;;;;;5.90;3.60;;;14.90;81.90;;;;;;5013812;28;20028;-75
2022/04/27 03:36:11;;;;;;;7.45;3.78;;;14.90;82.00;;;;;;5014149;28;20409;-75
2022/04/27 03:38:38;;;;;;;6.03;3.95;;;14.80;82.10;;;;;;5015233;28;20048;-75
2022/04/27 03:41:04;;;;;;;6.68;4.00;;;14.90;82.30;;;;;;5014900;28;20034;-76
2022/04/27 03:43:30;;;;;;;6.03;3.67;;;14.80;82.10;;;;;;5013779;28;20030;-76
2022/04/27 03:45:55;;;;;;;6.38;4.05;;;14.80;82.40;;;;;;5015101;28;20033;-75
2022/04/27 03:48:21;;;;;;;5.88;3.83;;;14.80;82.40;;;;;;5015161;28;20033;-75
2022/04/27 03:50:46;;;;;;;6.90;4.05;;;14.80;82.40;;;;;;5013723;28;20018;-75
2022/04/27 03:53:12;;;;;;;6.00;4.00;;;14.80;82.40;;;;;;5013605;28;20042;-76
2022/04/27 03:55:37;;;;;;;6.03;4.00;;;14.80;82.40;;;;;;5015049;28;20033;-76
2022/04/27 03:58:04;;;;;;;6.30;4.05;;;14.70;82.30;;;;;;5014666;28;20061;-76
2022/04/27 04:00:29;;;;;;;6.10;3.80;;;14.70;82.30;;;;;;5010186;28;20065;-76
2022/04/27 04:02:57;;;;;;;6.47;3.83;;;14.80;82.40;;;;;;5013906;28;20058;-75
2022/04/27 04:05:22;;;;;;;7.03;4.13;;;14.70;82.20;;;;;;5010858;28;20026;-76
2022/04/27 04:07:48;;;;;;;5.97;3.78;;;14.70;82.30;;;;;;5013096;28;20030;-75
2022/04/27 04:10:13;;;;;;;6.00;4.00;;;14.70;82.20;;;;;;5014707;28;20393;-76
2022/04/27 04:12:39;;;;;;;5.50;3.53;;;14.70;82.20;;;;;;5014418;28;20553;-75
2022/04/27 04:15:05;;;;;;;5.90;3.75;;;14.70;82.20;;;;;;5013166;28;20124;-75
2022/04/27 04:17:31;;;;;;;6.28;3.65;;;14.70;82.20;;;;;;5030085;28;20033;-76
2022/04/27 04:19:56;;;;;;;5.75;3.53;;;14.70;82.10;;;;;;5013193;28;20022;-75
2022/04/27 04:22:22;;;;;;;5.85;3.90;;;14.70;82.10;;;;;;5014744;28;20462;-76
2022/04/27 04:30:15;;;;;;;7.15;4.10;;;14.70;82.00;;;;;;5014058;28;20076;-70
2022/04/27 04:32:41;;;;;;;5.63;3.58;;;14.70;81.80;;;;;;5013931;28;20053;-75
2022/04/27 04:35:07;;;;;;;6.18;3.70;;;14.80;81.80;;;;;;5014029;28;20481;-76
2022/04/27 04:37:33;;;;;;;5.93;3.78;;;14.80;81.70;;;;;;5007607;28;20405;-75
2022/04/27 04:39:59;;;;;;;5.97;3.88;;;14.80;81.50;;;;;;5011566;28;20037;-76
2022/04/27 04:42:25;;;;;;;6.15;3.70;;;14.90;81.50;;;;;;5010836;28;20060;-75
2022/04/27 04:44:50;;;;;;;6.90;4.03;;;14.90;82.00;;;;;;5010074;28;20022;-75
2022/04/27 04:47:15;;;;;;;5.75;3.72;;;14.90;81.50;;;;;;5009024;28;20034;-74
2022/04/27 04:49:41;;;;;;;6.45;3.78;;;14.90;81.40;;;;;;5009435;28;20138;-75
2022/04/27 04:52:07;;;;;;;6.68;4.18;;;14.80;81.40;;;;;;5018340;28;20048;-77
2022/04/27 04:54:34;;;;;;;6.85;3.80;;;14.80;81.60;;;;;;5011279;28;20474;-75
2022/04/27 04:56:59;;;;;;;6.28;3.75;;;14.90;81.90;;;;;;5008731;28;20907;-75
2022/04/27 04:59:25;;;;;;;7.03;4.22;;;14.80;81.80;;;;;;5010048;28;20108;-75
2022/04/27 05:01:51;;;;;;;6.20;4.05;;;14.80;81.90;;;;;;5008828;28;20033;-75
2022/04/27 05:04:17;;;;;;;6.72;4.25;;;14.80;81.90;;;;;;5008009;28;20034;-75
2022/04/27 05:06:44;;;;;;;6.38;4.07;;;14.70;81.90;;;;;;5009438;28;20291;-76
2022/04/27 05:09:10;;;;;;;5.90;3.97;;;14.70;81.80;;;;;;5010058;28;20025;-77
2022/04/27 05:11:35;;;;;;;6.38;4.03;;;14.70;81.90;;;;;;5008524;28;20568;-75
2022/04/27 05:14:01;;;;;;;6.45;3.80;;;14.70;81.80;;;;;;5008368;28;20037;-76
2022/04/27 05:16:27;;;;;;;7.00;4.20;;;14.70;81.80;;;;;;5008136;28;20708;-77
2022/04/27 05:18:53;;;;;;;6.30;4.10;;;14.70;81.70;;;;;;5011743;28;20029;-77
2022/04/27 05:21:18;;;;;;;6.93;4.93;;;14.70;81.70;;;;;;5009281;28;20405;-77
2022/04/27 05:23:44;;;;;;;7.43;4.18;;;14.70;81.70;;;;;;5010499;28;20076;-75
2022/04/27 05:26:11;;;;;;;6.35;4.18;;;14.70;81.70;;;;;;5009943;28;20026;-74
2022/04/27 05:34:05;;;;;;;35.50;5.93;;;14.70;80.60;;;;;;5009302;28;20044;-75
2022/04/27 05:36:30;;;;;;;26.60;6.50;;;14.70;80.70;;;;;;5009170;28;20029;-75
2022/04/27 05:38:56;;;;;;;26.35;5.75;;;14.80;80.80;;;;;;5008105;28;20632;-75
2022/04/27 05:41:21;;;;;;;21.52;6.10;;;14.70;80.80;;;;;;5008970;28;20145;-75
2022/04/27 05:43:47;;;;;;;17.67;5.18;;;14.80;80.80;;;;;;5007127;28;20021;-75
2022/04/27 05:46:12;;;;;;;28.83;7.25;;;14.70;80.70;;;;;;5007697;28;20018;-74
2022/04/27 05:48:38;;;;;;;27.02;6.32;;;14.80;80.70;;;;;;5007691;28;20183;-75
2022/04/27 05:51:05;;;;;;;25.50;6.32;;;14.80;80.70;;;;;;5005987;28;20721;-77
2022/04/27 05:53:30;;;;;;;20.52;5.65;;;14.80;80.70;;;;;;5007011;28;20037;-74
2022/04/27 05:55:56;;;;;;;22.65;5.90;;;14.90;80.40;;;;;;5007396;28;20029;-74
2022/04/27 05:58:21;;;;;;;22.77;5.45;;;14.90;80.20;;;;;;5007364;28;20038;-76
2022/04/27 06:00:49;;;;;;;26.63;7.07;;;14.90;79.90;;;;;;5008546;28;20037;-75
2022/04/27 06:03:15;;;;;;;20.02;5.80;;;14.90;79.80;;;;;;5008750;28;20061;-73
2022/04/27 06:05:40;;;;;;;20.23;5.72;;;15.00;79.70;;;;;;5008863;28;20096;-74
2022/04/27 06:08:06;;;;;;;16.85;5.43;;;15.00;79.70;;;;;;5007388;28;20037;-76
2022/04/27 06:10:32;;;;;;;20.60;5.55;;;15.00;79.70;;;;;;5007707;28;20478;-74
2022/04/27 06:12:58;;;;;;;16.27;6.32;;;14.90;79.70;;;;;;5008441;28;20108;-75
2022/04/27 06:15:23;;;;;;;22.10;5.50;;;14.90;79.70;;;;;;5008701;28;20036;-74
2022/04/27 06:17:52;;;;;;;24.95;5.55;;;14.90;79.80;;;;;;5007530;28;20034;-74
2022/04/27 06:20:18;;;;;;;15.90;5.50;;;14.90;79.90;;;;;;5006698;28;20054;-73
2022/04/27 06:22:43;;;;;;;16.13;5.35;;;15.00;80.00;;;;;;5006896;28;20064;-73
2022/04/27 06:25:09;;;;;;;16.10;5.50;;;14.90;80.00;;;;;;5008653;28;20416;-73
2022/04/27 06:27:35;;;;;;;16.55;5.63;;;14.90;80.00;;;;;;5006853;28;20092;-73
2022/04/27 06:30:01;;;;;;;12.32;5.53;;;15.00;80.10;;;;;;5008238;28;20026;-75
2022/04/27 06:32:29;;;;;;;12.13;5.60;;;14.90;80.00;;;;;;5006970;28;20026;-74
2022/04/27 06:34:55;;;;;;;14.07;5.40;;;15.00;80.00;;;;;;5008409;28;20064;-74
2022/04/27 06:37:20;;;;;;;15.70;4.97;;;15.00;80.00;;;;;;5008635;28;20053;-74
2022/04/27 06:39:46;;;;;;;14.90;4.75;;;15.00;79.90;;;;;;5007127;28;20725;-74
2022/04/27 06:42:11;;;;;;;16.92;5.68;;;15.00;79.80;;;;;;5006862;28;20053;-74
2022/04/27 06:44:37;;;;;;;10.48;4.80;;;15.00;79.80;;;;;;5008246;28;20022;-74
2022/04/27 06:47:03;;;;;;;14.20;5.13;;;15.00;79.80;;;;;;5007201;28;20399;-73
2022/04/27 06:49:29;;;;;;;11.77;5.30;;;15.00;79.80;;;;;;5008789;28;20373;-74
2022/04/27 06:51:54;;;;;;;12.82;5.60;;;15.00;79.70;;;;;;5008056;28;20037;-73
2022/04/27 06:54:20;;;;;;;17.05;5.68;;;15.10;79.70;;;;;;5008484;28;20113;-74
2022/04/27 06:56:46;;;;;;;10.68;4.95;;;15.10;79.60;;;;;;5006314;28;20121;-78
2022/04/27 06:59:11;;;;;;;15.43;5.20;;;15.10;79.60;;;;;;5006753;28;20084;-74
2022/04/27 07:01:37;;;;;;;12.57;5.22;;;15.10;79.60;;;;;;5007194;28;20411;-74
2022/04/27 07:04:06;;;;;;;13.85;5.78;;;15.10;79.50;;;;;;5011983;28;20053;-74
2022/04/27 07:06:32;;;;;;;13.40;5.40;;;15.20;79.50;;;;;;5011990;28;20084;-74
2022/04/27 07:08:58;;;;;;;10.65;4.90;;;15.20;79.40;;;;;;5010907;28;20026;-74
2022/04/27 07:11:23;;;;;;;11.30;4.65;;;15.20;79.30;;;;;;5010582;28;20125;-74
2022/04/27 07:13:49;;;;;;;12.55;5.22;;;15.30;79.10;;;;;;5011745;28;20034;-74
2022/04/27 07:16:14;;;;;;;9.57;4.93;;;15.30;78.90;;;;;;5012067;28;20033;-75
2022/04/27 07:18:40;;;;;;;12.20;5.05;;;15.30;78.70;;;;;;5010545;28;20489;-74
2022/04/27 07:21:08;;;;;;;9.50;4.80;;;15.40;78.70;;;;;;5010437;28;20026;-74
2022/04/27 07:23:33;;;;;;;10.88;5.10;;;15.40;78.50;;;;;;5010532;28;20559;-76
2022/04/27 07:25:59;;;;;;;10.25;4.93;;;15.40;78.40;;;;;;5010207;28;20022;-73
2022/04/27 07:28:25;;;;;;;12.10;4.78;;;15.50;78.40;;;;;;5011614;28;20045;-74
2022/04/27 07:30:50;;;;;;;9.73;4.68;;;15.40;78.30;;;;;;5011348;28;20030;-76
2022/04/27 07:33:16;;;;;;;9.60;4.82;;;15.40;78.30;;;;;;5012985;28;20025;-77
2022/04/27 07:35:41;;;;;;;9.13;5.00;;;15.40;78.20;;;;;;5010626;28;20405;-74
2022/04/27 07:38:07;;;;;;;11.13;4.50;;;15.40;78.20;;;;;;5011391;28;20034;-74
2022/04/27 07:40:32;;;;;;;10.68;4.90;;;15.40;78.30;;;;;;5009881;28;20551;-75
2022/04/27 07:42:59;;;;;;;11.02;4.68;;;15.40;78.40;;;;;;5010168;28;20156;-73
2022/04/27 07:45:25;;;;;;;10.77;5.03;;;15.40;78.40;;;;;;5010437;28;20068;-73
2022/04/27 07:47:51;;;;;;;9.07;4.38;;;15.40;78.40;;;;;;5009903;28;20030;-74
2022/04/27 07:50:18;;;;;;;11.40;4.78;;;15.40;78.40;;;;;;5011228;28;20029;-74
2022/04/27 07:52:44;;;;;;;9.85;4.90;;;15.40;78.50;;;;;;5009935;28;20046;-74
2022/04/27 07:55:11;;;;;;;10.82;4.70;;;15.40;78.50;;;;;;5010317;28;20072;-74
2022/04/27 07:57:37;;;;;;;10.27;4.68;;;15.40;78.50;;;;;;5011181;28;20109;-78
2022/04/27 08:00:05;;;;;;;10.32;4.60;;;15.50;78.50;;;;;;5011244;28;20029;-76
2022/04/27 08:02:31;;;;;;;10.15;5.57;;;15.50;78.50;;;;;;5010737;28;20041;-75
2022/04/27 08:04:57;;;;;;;7.55;4.50;;;15.50;78.50;;;;;;5009790;28;20335;-74
2022/04/27 08:07:23;;;;;;;8.02;4.78;;;15.50;78.40;;;;;;5009781;28;20021;-75
2022/04/27 08:09:48;;;;;;;9.82;4.45;;;15.50;78.40;;;;;;5009407;28;20126;-75
2022/04/27 08:12:14;;;;;;;8.68;4.90;;;15.50;78.40;;;;;;5009930;28;20528;-75
2022/04/27 08:14:39;;;;;;;8.00;4.65;;;15.50;78.20;;;;;;4989611;28;20117;-75
2022/04/27 08:17:05;;;;;;;7.78;4.90;;;15.60;78.20;;;;;;4991257;28;20038;-75
2022/04/27 08:19:30;;;;;;;7.22;4.70;;;15.60;78.20;;;;;;5005733;28;20504;-78
2022/04/27 08:21:56;;;;;;;8.98;4.45;;;15.60;78.20;;;;;;4989174;28;20030;-75
2022/04/27 08:24:22;;;;;;;10.77;4.82;;;15.60;78.10;;;;;;4991121;28;20027;-75
2022/04/27 08:26:48;;;;;;;9.32;5.15;;;15.60;78.10;;;;;;4990065;28;20030;-76
2022/04/27 08:29:14;;;;;;;8.77;5.05;;;15.60;78.00;;;;;;4989970;28;20045;-77
2022/04/27 08:31:40;;;;;;;8.50;5.05;;;15.70;78.00;;;;;;4989402;28;20023;-76
2022/04/27 08:34:06;;;;;;;8.25;5.07;;;15.70;77.80;;;;;;4989926;28;20031;-76
2022/04/27 08:36:32;;;;;;;8.13;4.60;;;15.70;77.70;;;;;;4988761;28;20030;-76
2022/04/27 08:38:58;;;;;;;8.40;4.72;;;15.80;77.60;;;;;;4990657;28;20037;-76
2022/04/27 08:41:26;;;;;;;9.43;4.85;;;15.80;77.50;;;;;;4988964;28;20041;-75
2022/04/27 08:43:51;;;;;;;9.45;5.25;;;15.80;77.30;;;;;;4989429;28;20568;-78
2022/04/27 08:46:17;;;;;;;8.38;4.60;;;15.90;77.30;;;;;;4989430;28;20037;-75
2022/04/27 08:48:47;;;;;;;7.28;4.80;;;15.90;77.20;;;;;;5005534;28;20026;-76
2022/04/27 08:51:13;;;;;;;9.75;4.97;;;15.80;77.00;;;;;;4990262;28;20033;-77
2022/04/27 08:53:39;;;;;;;8.18;5.05;;;15.90;77.10;;;;;;4989206;28;20027;-76
2022/04/27 08:56:04;;;;;;;7.93;5.13;;;15.90;77.10;;;;;;4989293;28;20037;-76
2022/04/27 08:58:30;;;;;;;9.15;4.97;;;15.90;77.30;;;;;;4990146;28;20040;-76
2022/04/27 09:00:56;;;;;;;8.95;5.32;;;15.80;77.30;;;;;;5005177;28;20797;-75
2022/04/27 09:03:28;;;;;;;7.60;4.60;;;15.90;77.30;;;;;;4989884;28;20026;-76
2022/04/27 09:05:58;;;;;;;9.18;5.47;;;15.90;77.40;;;;;;4990226;28;20030;-75
2022/04/27 09:08:26;;;;;;;8.52;4.97;;;15.90;77.30;;;;;;4988898;28;20041;-75
2022/04/27 09:11:11;;;;;;;8.80;5.38;;;15.90;77.40;;;;;;4988474;28;20383;-75
2022/04/27 09:13:37;;;;;;;8.45;5.18;;;15.90;77.40;;;;;;4988822;28;20033;-75
2022/04/27 09:16:03;;;;;;;7.45;4.78;;;15.80;77.40;;;;;;4989971;28;20034;-78
2022/04/27 09:22:00;;;;;;;7.78;5.00;;;15.80;77.40;;;;;;4989979;28;20116;-75
2022/04/27 09:24:28;;;;;;;8.10;5.20;;;15.90;77.40;;;;;;4989657;28;20026;-75
2022/04/27 09:27:11;;;;;;;9.00;5.10;;;15.90;77.30;;;;;;5003825;28;20029;-75
2022/04/27 09:29:37;;;;;;;8.98;4.93;;;15.90;77.10;;;;;;4989369;28;20034;-76
2022/04/27 09:32:04;;;;;;;7.80;5.03;;;15.90;77.00;;;;;;4989439;28;20085;-75
2022/04/27 09:34:43;;;;;;;7.22;4.40;;;16.00;77.00;;;;;;4988341;28;20053;-75
2022/04/27 09:37:16;;;;;;;8.35;5.07;;;16.00;77.00;;;;;;4988505;28;20026;-74
2022/04/27 09:39:43;;;;;;;8.50;5.10;;;16.00;77.10;;;;;;4988577;28;20034;-76
2022/04/27 09:42:10;;;;;;;7.65;5.10;;;16.00;77.00;;;;;;4987995;28;20030;-75
2022/04/27 09:44:37;;;;;;;8.27;5.50;;;16.00;77.00;;;;;;4988292;28;20030;-75
2022/04/27 09:47:04;;;;;;;7.35;4.88;;;16.00;76.90;;;;;;4989497;28;20394;-76
2022/04/27 09:49:32;;;;;;;7.80;5.05;;;16.10;76.80;;;;;;4988313;28;20053;-75
2022/04/27 09:52:00;;;;;;;8.75;5.32;;;16.10;76.80;;;;;;5004160;28;20026;-75
2022/04/27 09:54:30;;;;;;;9.50;5.57;;;16.10;76.80;;;;;;4987798;28;20686;-75
2022/04/27 09:56:57;;;;;;;7.65;4.75;;;16.10;76.70;;;;;;4987949;28;20041;-76
2022/04/27 09:59:29;;;;;;;8.32;5.30;;;16.10;76.70;;;;;;4989190;28;20026;-76
2022/04/27 10:01:58;;;;;;;8.15;4.97;;;16.10;76.70;;;;;;4988986;28;20540;-77
2022/04/27 10:04:25;;;;;;;8.02;5.00;;;16.10;76.50;;;;;;4987981;28;20026;-76
2022/04/27 10:06:52;;;;;;;8.27;4.68;;;16.20;76.40;;;;;;4987680;28;20023;-76
2022/04/27 10:09:17;;;;;;;8.02;4.72;;;16.20;76.30;;;;;;4989031;28;20062;-75
2022/04/27 10:11:44;;;;;;;8.20;5.00;;;16.20;76.30;;;;;;4989296;28;20054;-75
2022/04/27 10:14:11;;;;;;;8.13;4.55;;;16.20;76.20;;;;;;4988091;28;20059;-75
2022/04/27 10:16:37;;;;;;;7.65;4.95;;;16.20;76.40;;;;;;4989001;28;20027;-75
2022/04/27 10:19:07;;;;;;;7.47;4.70;;;16.10;76.40;;;;;;4987771;28;20494;-76
2022/04/27 10:21:56;;;;;;;7.35;4.70;;;16.10;76.50;;;;;;4987023;28;20031;-78
2022/04/27 10:24:33;;;;;;;6.95;4.93;;;16.20;76.50;;;;;;4987551;28;20034;-75
2022/04/27 10:27:25;;;;;;;7.22;5.00;;;16.20;76.50;;;;;;4988829;28;20073;-75
2022/04/27 10:30:08;;;;;;;6.88;4.82;;;16.20;76.50;;;;;;4988895;28;20049;-75
2022/04/27 10:32:37;;;;;;;6.50;4.68;;;16.10;76.50;;;;;;4988719;28;20030;-75
2022/04/27 10:35:12;;;;;;;7.07;4.90;;;16.10;76.80;;;;;;4988859;28;20022;-78
2022/04/27 10:37:50;;;;;;;6.90;4.72;;;16.10;76.90;;;;;;4988588;28;20098;-75
2022/04/27 10:40:37;;;;;;;6.95;4.32;;;16.10;77.00;;;;;;4987664;28;20405;-74
2022/04/27 10:43:06;;;;;;;7.03;4.30;;;16.00;77.00;;;;;;4988975;28;20034;-75
2022/04/27 10:45:31;;;;;;;7.72;4.95;;;16.00;77.20;;;;;;4987778;28;20128;-75
2022/04/27 10:47:57;;;;;;;7.07;4.40;;;15.90;77.30;;;;;;4988744;28;20145;-76
2022/04/27 10:50:30;;;;;;;7.50;4.68;;;16.00;77.20;;;;;;4988166;28;20023;-75
2022/04/27 10:52:57;;;;;;;6.32;4.38;;;16.00;77.20;;;;;;4987435;28;20046;-77
2022/04/27 10:55:35;;;;;;;7.68;4.63;;;16.00;77.10;;;;;;4988612;28;20034;-75
2022/04/27 10:58:31;;;;;;;7.28;4.40;;;16.00;77.10;;;;;;4987139;28;20026;-75
2022/04/27 11:01:02;;;;;;;6.82;4.82;;;16.00;77.10;;;;;;4987453;28;20050;-76
2022/04/27 11:03:35;;;;;;;7.10;4.10;;;16.10;77.10;;;;;;4987169;28;20030;-75
2022/04/27 11:06:03;;;;;;;8.10;5.00;;;16.00;77.10;;;;;;4988285;28;20030;-75
2022/04/27 11:08:47;;;;;;;6.65;4.22;;;16.10;77.10;;;;;;4988216;28;20062;-75
2022/04/27 11:11:16;;;;;;;6.80;4.43;;;16.10;77.00;;;;;;4987244;28;20405;-75
2022/04/27 11:13:42;;;;;;;6.60;4.18;;;16.10;77.40;;;;;;4987057;28;20042;-75
2022/04/27 11:16:13;;;;;;;6.63;4.80;;;16.10;76.70;;;;;;5003621;28;20035;-75
2022/04/27 11:18:52;;;;;;;6.77;4.30;;;16.20;76.70;;;;;;4987278;28;20425;-75
2022/04/27 11:21:19;;;;;;;6.22;4.05;;;16.20;76.50;;;;;;4987501;28;20036;-75
2022/04/27 11:23:46;;;;;;;6.55;4.38;;;16.20;76.40;;;;;;4987081;28;20042;-75
2022/04/27 11:26:13;;;;;;;6.88;4.13;;;16.20;76.50;;;;;;4987371;28;20027;-75
2022/04/27 11:28:42;;;;;;;6.20;4.10;;;16.20;76.40;;;;;;4986713;28;20034;-75
2022/04/27 11:31:08;;;;;;;7.13;4.10;;;16.20;76.30;;;;;;4988008;28;20496;-74
2022/04/27 11:33:39;;;;;;;6.57;4.20;;;16.10;76.50;;;;;;4988387;28;20041;-75
2022/04/27 11:36:04;;;;;;;6.28;4.15;;;16.10;76.80;;;;;;4987187;28;20026;-75
2022/04/27 11:38:35;;;;;;;6.50;4.15;;;16.10;76.90;;;;;;4987987;28;20690;-75
2022/04/27 11:41:02;;;;;;;6.57;4.50;;;16.00;77.50;;;;;;4986856;28;20030;-74
2022/04/27 11:43:34;;;;;;;5.78;3.85;;;16.00;77.10;;;;;;4987749;28;20027;-76
2022/04/27 11:45:59;;;;;;;6.72;4.43;;;16.00;77.20;;;;;;4987947;28;20526;-75
2022/04/27 11:48:31;;;;;;;6.97;4.38;;;16.00;77.20;;;;;;4986794;28;20130;-74
2022/04/27 11:50:57;;;;;;;;;;;16.00;77.30;;;;;;5006960;28;20023;-74
2022/04/27 11:53:23;;;;;;;6.20;4.35;;;16.00;77.30;;;;;;4990546;28;19905;-75
2022/04/27 11:55:50;;;;;;;6.35;4.43;;;16.00;77.40;;;;;;4991213;28;20037;-75
2022/04/27 11:58:26;;;;;;;6.68;4.30;;;16.00;77.50;;;;;;5006751;28;20121;-76
2022/04/27 12:00:56;;;;;;;6.28;4.28;;;16.00;77.50;;;;;;4989927;28;20030;-76
2022/04/27 12:03:23;;;;;;;6.50;4.25;;;16.00;77.40;;;;;;4991194;28;20049;-75
2022/04/27 12:05:53;;;;;;;6.32;4.53;;;16.00;77.50;;;;;;5006445;28;20069;-75
2022/04/27 12:08:26;;;;;;;6.22;4.10;;;16.00;77.50;;;;;;4990238;28;20033;-75
2022/04/27 12:10:51;;;;;;;6.00;4.15;;;16.00;77.50;;;;;;4990853;28;20257;-76
2022/04/27 12:13:19;;;;;;;7.07;4.35;;;16.00;77.50;;;;;;4989998;28;20482;-75
2022/04/27 12:15:54;;;;;;;6.57;4.57;;;16.00;77.50;;;;;;4989523;28;20037;-75
2022/04/27 12:18:25;;;;;;;6.88;4.13;;;16.00;77.40;;;;;;4989809;28;20103;-75
2022/04/27 12:20:52;;;;;;;6.45;4.03;;;16.00;77.50;;;;;;4991070;28;20058;-75
2022/04/27 12:23:23;;;;;;;6.15;4.25;;;16.00;78.00;;;;;;4989897;28;20928;-75
2022/04/27 12:26:01;;;;;;;6.60;4.28;;;16.00;77.40;;;;;;4989735;28;20030;-74
2022/04/27 12:28:29;;;;;;;6.93;4.15;;;16.00;77.40;;;;;;4989871;28;20105;-77
2022/04/27 12:31:02;;;;;;;6.35;4.45;;;16.00;77.30;;;;;;4991064;28;20038;-75
2022/04/27 12:33:30;;;;;;;7.00;4.38;;;16.10;77.10;;;;;;4991144;28;20593;-77
2022/04/27 12:39:10;;;;;;;7.30;4.13;;;16.10;76.90;;;;;;4990861;28;20537;-76
2022/04/27 12:41:40;;;;;;;6.30;4.30;;;16.10;76.80;;;;;;5004728;28;20065;-76
2022/04/27 12:44:07;;;;;;;6.60;4.28;;;16.10;76.80;;;;;;4990657;28;20062;-75
2022/04/27 12:46:32;;;;;;;6.32;4.20;;;16.10;76.90;;;;;;4989458;28;20450;-74
2022/04/27 12:49:03;;;;;;;7.38;4.72;;;16.00;77.10;;;;;;4989683;28;20065;-75
2022/04/27 12:51:32;;;;;;;6.75;4.20;;;16.00;77.30;;;;;;4990664;28;20050;-75
2022/04/27 12:53:57;;;;;;;6.68;4.50;;;16.00;77.40;;;;;;4989235;28;20616;-75
2022/04/27 12:56:39;;;;;;;7.10;4.15;;;16.00;77.50;;;;;;4990802;28;20094;-77
2022/04/27 12:59:11;;;;;;;7.30;4.15;;;15.90;77.60;;;;;;4989350;28;20033;-77
2022/04/27 13:01:37;;;;;;;6.00;4.03;;;15.90;77.70;;;;;;4989001;28;20041;-75
2022/04/27 13:04:03;;;;;;;6.32;4.30;;;15.90;77.80;;;;;;4988538;28;20030;-75
2022/04/27 13:06:32;;;;;;;6.30;4.25;;;15.90;77.80;;;;;;4990206;28;20386;-75
2022/04/27 13:11:55;;;;;;;6.90;4.40;;;15.90;77.80;;;;;;4989988;28;20062;-76